sensor_id;sensor_type;location;lat;lon;timestamp;pressure;altitude;pressure_sealevel;temperature;humidity
62038;BME280;47991;42.974;12.082;2023-01-05T00:01:34;98890.16;;;5.96;90.62
62038;BME280;47991;42.974;12.082;2023-01-05T00:04:04;98887.32;;;5.95;90.87
62038;BME280;47991;42.974;12.082;2023-01-05T00:06:32;98884.34;;;5.95;90.93
62038;BME280;47991;42.974;12.082;2023-01-05T00:09:00;98882.63;;;5.98;90.48
62038;BME280;47991;42.974;12.082;2023-01-05T00:11:27;98886.75;;;6.08;90.53
62038;BME280;47991;42.974;12.082;2023-01-05T00:14:26;98884.64;;;6.08;90.11
62038;BME280;47991;42.974;12.082;2023-01-05T00:17:15;98875.36;;;6.11;90.59
62038;BME280;47991;42.974;12.082;2023-01-05T00:20:09;98873.05;;;6.07;90.48
62038;BME280;47991;42.974;12.082;2023-01-05T00:22:58;98864.48;;;6.14;90.84
62038;BME280;47991;42.974;12.082;2023-01-05T00:25:32;98861.89;;;6.18;90.38
62038;BME280;47991;42.974;12.082;2023-01-05T00:28:00;98860.36;;;6.25;90.10
62038;BME280;47991;42.974;12.082;2023-01-05T00:30:36;98858.27;;;6.30;90.08
62038;BME280;47991;42.974;12.082;2023-01-05T00:33:11;98849.36;;;6.38;89.82
62038;BME280;47991;42.974;12.082;2023-01-05T00:35:39;98843.56;;;6.35;89.43
62038;BME280;47991;42.974;12.082;2023-01-05T00:38:07;98846.20;;;6.34;89.58
62038;BME280;47991;42.974;12.082;2023-01-05T00:40:35;98838.98;;;6.32;89.46
62038;BME280;47991;42.974;12.082;2023-01-05T00:43:03;98844.59;;;6.32;89.76
62038;BME280;47991;42.974;12.082;2023-01-05T00:45:30;98845.80;;;6.31;89.54
62038;BME280;47991;42.974;12.082;2023-01-05T00:47:58;98845.63;;;6.30;89.76
62038;BME280;47991;42.974;12.082;2023-01-05T00:50:26;98844.41;;;6.29;89.57
62038;BME280;47991;42.974;12.082;2023-01-05T00:52:54;98843.35;;;6.31;89.72
62038;BME280;47991;42.974;12.082;2023-01-05T00:55:22;98847.21;;;6.30;89.84
62038;BME280;47991;42.974;12.082;2023-01-05T00:57:49;98847.20;;;6.29;90.12
62038;BME280;47991;42.974;12.082;2023-01-05T01:00:18;98851.60;;;6.29;90.29
62038;BME280;47991;42.974;12.082;2023-01-05T01:02:46;98851.28;;;6.34;90.45
62038;BME280;47991;42.974;12.082;2023-01-05T01:05:17;98849.74;;;6.43;90.57
62038;BME280;47991;42.974;12.082;2023-01-05T01:07:44;98848.73;;;6.49;90.33
62038;BME280;47991;42.974;12.082;2023-01-05T01:10:13;98845.41;;;6.52;90.73
62038;BME280;47991;42.974;12.082;2023-01-05T01:12:40;98845.90;;;6.47;90.99
62038;BME280;47991;42.974;12.082;2023-01-05T01:15:08;98846.11;;;6.52;90.88
62038;BME280;47991;42.974;12.082;2023-01-05T01:17:36;98847.90;;;6.59;90.50
62038;BME280;47991;42.974;12.082;2023-01-05T01:20:04;98839.45;;;6.61;90.18
62038;BME280;47991;42.974;12.082;2023-01-05T01:22:32;98840.70;;;6.61;90.28
62038;BME280;47991;42.974;12.082;2023-01-05T01:25:02;98841.92;;;6.58;90.07
62038;BME280;47991;42.974;12.082;2023-01-05T01:27:30;98841.38;;;6.55;90.23
62038;BME280;47991;42.974;12.082;2023-01-05T01:30:02;98836.48;;;6.58;90.23
62038;BME280;47991;42.974;12.082;2023-01-05T01:32:30;98837.53;;;6.58;90.30
62038;BME280;47991;42.974;12.082;2023-01-05T01:34:59;98831.56;;;6.58;90.28
62038;BME280;47991;42.974;12.082;2023-01-05T01:37:26;98824.55;;;6.60;90.33
62038;BME280;47991;42.974;12.082;2023-01-05T01:39:56;98819.42;;;6.57;90.23
62038;BME280;47991;42.974;12.082;2023-01-05T01:42:23;98820.29;;;6.53;90.41
62038;BME280;47991;42.974;12.082;2023-01-05T01:44:57;98821.51;;;6.53;90.47
62038;BME280;47991;42.974;12.082;2023-01-05T01:47:46;98823.45;;;6.53;90.65
62038;BME280;47991;42.974;12.082;2023-01-05T01:50:36;98821.55;;;6.58;90.81
62038;BME280;47991;42.974;12.082;2023-01-05T01:53:30;98820.64;;;6.56;90.41
62038;BME280;47991;42.974;12.082;2023-01-05T01:55:59;98817.14;;;6.56;90.86
62038;BME280;47991;42.974;12.082;2023-01-05T01:58:30;98816.98;;;6.60;90.46
62038;BME280;47991;42.974;12.082;2023-01-05T02:00:58;98815.06;;;6.64;90.69
62038;BME280;47991;42.974;12.082;2023-01-05T02:03:30;98818.45;;;6.74;90.43
62038;BME280;47991;42.974;12.082;2023-01-05T02:05:58;98820.02;;;6.68;91.28
62038;BME280;47991;42.974;12.082;2023-01-05T02:08:26;98817.86;;;6.62;91.03
62038;BME280;47991;42.974;12.082;2023-01-05T02:16:51;98814.86;;;6.56;93.54
62038;BME280;47991;42.974;12.082;2023-01-05T02:20:01;98812.39;;;6.54;93.20
62038;BME280;47991;42.974;12.082;2023-01-05T02:31:27;98802.77;;;6.29;96.06
62038;BME280;47991;42.974;12.082;2023-01-05T02:34:21;98799.27;;;6.32;95.43
62038;BME280;47991;42.974;12.082;2023-01-05T02:37:04;98798.45;;;6.40;94.93
62038;BME280;47991;42.974;12.082;2023-01-05T02:39:59;98795.14;;;6.47;94.43
62038;BME280;47991;42.974;12.082;2023-01-05T02:42:33;98786.90;;;6.53;94.18
62038;BME280;47991;42.974;12.082;2023-01-05T02:45:05;98785.17;;;6.60;93.79
62038;BME280;47991;42.974;12.082;2023-01-05T02:47:43;98782.06;;;6.72;93.72
62038;BME280;47991;42.974;12.082;2023-01-05T02:50:19;98781.73;;;6.82;93.53
62038;BME280;47991;42.974;12.082;2023-01-05T02:53:01;98776.65;;;6.84;93.61
62038;BME280;47991;42.974;12.082;2023-01-05T02:55:36;98773.83;;;6.85;94.00
62038;BME280;47991;42.974;12.082;2023-01-05T02:58:14;98772.79;;;6.85;94.01
62038;BME280;47991;42.974;12.082;2023-01-05T03:00:56;98772.80;;;6.89;93.56
62038;BME280;47991;42.974;12.082;2023-01-05T03:03:45;98769.45;;;6.90;94.82
62038;BME280;47991;42.974;12.082;2023-01-05T03:06:27;98767.36;;;6.89;94.31
62038;BME280;47991;42.974;12.082;2023-01-05T03:08:59;98761.55;;;6.97;94.38
62038;BME280;47991;42.974;12.082;2023-01-05T03:11:38;98766.09;;;6.84;95.81
62038;BME280;47991;42.974;12.082;2023-01-05T03:14:34;98760.63;;;6.76;96.17
62038;BME280;47991;42.974;12.082;2023-01-05T03:17:06;98762.21;;;6.72;96.50
62038;BME280;47991;42.974;12.082;2023-01-05T03:19:37;98752.90;;;6.76;96.29
62038;BME280;47991;42.974;12.082;2023-01-05T03:22:17;98748.17;;;6.83;95.72
62038;BME280;47991;42.974;12.082;2023-01-05T03:25:09;98736.92;;;6.87;95.67
62038;BME280;47991;42.974;12.082;2023-01-05T03:27:56;98727.60;;;6.85;95.39
62038;BME280;47991;42.974;12.082;2023-01-05T03:31:00;98725.69;;;6.88;95.30
62038;BME280;47991;42.974;12.082;2023-01-05T03:34:00;98719.00;;;6.90;94.85
62038;BME280;47991;42.974;12.082;2023-01-05T03:36:58;98714.09;;;6.95;94.50
62038;BME280;47991;42.974;12.082;2023-01-05T03:39:29;98707.23;;;7.00;94.28
62038;BME280;47991;42.974;12.082;2023-01-05T03:42:00;98704.44;;;7.04;94.07
62038;BME280;47991;42.974;12.082;2023-01-05T03:44:28;98700.91;;;7.06;94.10
62038;BME280;47991;42.974;12.082;2023-01-05T03:46:56;98698.47;;;7.14;94.16
62038;BME280;47991;42.974;12.082;2023-01-05T03:49:24;98693.55;;;7.20;93.98
62038;BME280;47991;42.974;12.082;2023-01-05T03:51:51;98691.60;;;7.23;93.94
62038;BME280;47991;42.974;12.082;2023-01-05T03:54:19;98691.95;;;7.24;94.06
62038;BME280;47991;42.974;12.082;2023-01-05T03:56:47;98694.23;;;7.22;94.08
62038;BME280;47991;42.974;12.082;2023-01-05T03:59:14;98692.65;;;7.21;94.04
62038;BME280;47991;42.974;12.082;2023-01-05T04:01:43;98690.37;;;7.18;93.89
62038;BME280;47991;42.974;12.082;2023-01-05T04:04:12;98688.44;;;7.09;94.99
62038;BME280;47991;42.974;12.082;2023-01-05T04:06:41;98693.52;;;6.88;96.38
62038;BME280;47991;42.974;12.082;2023-01-05T04:09:10;98691.04;;;6.79;96.65
62038;BME280;47991;42.974;12.082;2023-01-05T04:11:38;98691.05;;;6.83;96.47
62038;BME280;47991;42.974;12.082;2023-01-05T04:14:08;98688.26;;;6.92;95.99
62038;BME280;47991;42.974;12.082;2023-01-05T04:16:35;98688.78;;;6.92;95.30
62038;BME280;47991;42.974;12.082;2023-01-05T04:19:11;98688.95;;;6.91;95.13
62038;BME280;47991;42.974;12.082;2023-01-05T04:21:38;98695.11;;;6.97;95.17
62038;BME280;47991;42.974;12.082;2023-01-05T04:24:09;98691.95;;;6.98;94.96
62038;BME280;47991;42.974;12.082;2023-01-05T04:26:38;98692.81;;;6.94;94.92
62038;BME280;47991;42.974;12.082;2023-01-05T04:29:09;98696.16;;;6.90;94.92
62038;BME280;47991;42.974;12.082;2023-01-05T04:31:38;98695.63;;;6.86;94.85
62038;BME280;47991;42.974;12.082;2023-01-05T04:34:06;98694.92;;;6.89;94.57
62038;BME280;47991;42.974;12.082;2023-01-05T04:36:34;98694.05;;;6.89;94.59
62038;BME280;47991;42.974;12.082;2023-01-05T04:39:03;98697.55;;;6.81;93.82
62038;BME280;47991;42.974;12.082;2023-01-05T04:41:31;98698.59;;;6.69;93.85
62038;BME280;47991;42.974;12.082;2023-01-05T04:43:58;98699.10;;;6.65;94.34
62038;BME280;47991;42.974;12.082;2023-01-05T04:46:28;98699.27;;;6.66;94.07
62038;BME280;47991;42.974;12.082;2023-01-05T04:48:56;98701.56;;;6.65;93.92
62038;BME280;47991;42.974;12.082;2023-01-05T04:51:24;98699.79;;;6.63;93.64
62038;BME280;47991;42.974;12.082;2023-01-05T04:53:51;98701.39;;;6.63;93.73
62038;BME280;47991;42.974;12.082;2023-01-05T04:56:20;98703.65;;;6.61;93.58
62038;BME280;47991;42.974;12.082;2023-01-05T04:58:48;98700.33;;;6.62;93.26
62038;BME280;47991;42.974;12.082;2023-01-05T05:01:16;98704.86;;;6.53;92.79
62038;BME280;47991;42.974;12.082;2023-01-05T05:03:46;98704.48;;;6.45;92.85
62038;BME280;47991;42.974;12.082;2023-01-05T05:06:14;98705.85;;;6.33;92.85
62038;BME280;47991;42.974;12.082;2023-01-05T05:08:45;98702.66;;;6.24;92.68
62038;BME280;47991;42.974;12.082;2023-01-05T05:11:13;98699.61;;;6.09;92.81
62038;BME280;47991;42.974;12.082;2023-01-05T05:13:44;98702.59;;;6.08;93.33
62038;BME280;47991;42.974;12.082;2023-01-05T05:16:13;98698.39;;;6.11;93.47
62038;BME280;47991;42.974;12.082;2023-01-05T05:18:41;98695.77;;;6.16;93.42
62038;BME280;47991;42.974;12.082;2023-01-05T05:21:10;98690.52;;;6.16;93.23
62038;BME280;47991;42.974;12.082;2023-01-05T05:23:39;98692.61;;;6.16;93.01
62038;BME280;47991;42.974;12.082;2023-01-05T05:26:06;98688.05;;;6.15;93.30
62038;BME280;47991;42.974;12.082;2023-01-05T05:28:34;98687.55;;;6.20;93.31
62038;BME280;47991;42.974;12.082;2023-01-05T05:31:02;98684.38;;;6.23;93.32
62038;BME280;47991;42.974;12.082;2023-01-05T05:33:29;98683.33;;;6.21;93.51
62038;BME280;47991;42.974;12.082;2023-01-05T05:35:57;98679.47;;;6.18;93.58
62038;BME280;47991;42.974;12.082;2023-01-05T05:38:24;98673.85;;;6.22;93.40
62038;BME280;47991;42.974;12.082;2023-01-05T05:40:52;98678.09;;;6.25;93.86
62038;BME280;47991;42.974;12.082;2023-01-05T05:43:20;98673.71;;;6.30;93.85
62038;BME280;47991;42.974;12.082;2023-01-05T05:45:47;98669.49;;;6.34;93.84
62038;BME280;47991;42.974;12.082;2023-01-05T05:48:15;98670.58;;;6.40;93.44
62038;BME280;47991;42.974;12.082;2023-01-05T05:50:43;98671.80;;;6.41;92.96
62038;BME280;47991;42.974;12.082;2023-01-05T05:53:11;98671.61;;;6.33;92.94
62038;BME280;47991;42.974;12.082;2023-01-05T05:55:39;98673.70;;;6.29;93.28
62038;BME280;47991;42.974;12.082;2023-01-05T05:58:06;98673.69;;;6.27;92.78
62038;BME280;47991;42.974;12.082;2023-01-05T06:00:34;98673.69;;;6.23;93.00
62038;BME280;47991;42.974;12.082;2023-01-05T06:03:01;98676.48;;;6.18;92.76
62038;BME280;47991;42.974;12.082;2023-01-05T06:05:29;98676.09;;;6.11;92.70
62038;BME280;47991;42.974;12.082;2023-01-05T06:07:56;98675.01;;;6.03;92.66
62038;BME280;47991;42.974;12.082;2023-01-05T06:10:24;98674.08;;;5.94;92.72
62038;BME280;47991;42.974;12.082;2023-01-05T06:12:55;98675.95;;;5.87;92.69
62038;BME280;47991;42.974;12.082;2023-01-05T06:15:23;98677.63;;;5.73;92.21
62038;BME280;47991;42.974;12.082;2023-01-05T06:17:53;98677.07;;;5.66;92.62
62038;BME280;47991;42.974;12.082;2023-01-05T06:20:21;98679.67;;;5.60;92.50
62038;BME280;47991;42.974;12.082;2023-01-05T06:22:49;98678.95;;;5.57;92.69
62038;BME280;47991;42.974;12.082;2023-01-05T06:25:17;98685.25;;;5.57;92.63
62038;BME280;47991;42.974;12.082;2023-01-05T06:27:45;98680.73;;;5.60;92.69
62038;BME280;47991;42.974;12.082;2023-01-05T06:30:14;98675.30;;;5.64;92.40
62038;BME280;47991;42.974;12.082;2023-01-05T06:32:41;98673.02;;;5.63;91.94
62038;BME280;47991;42.974;12.082;2023-01-05T06:35:09;98676.14;;;5.58;92.16
62038;BME280;47991;42.974;12.082;2023-01-05T06:37:36;98672.45;;;5.56;92.23
62038;BME280;47991;42.974;12.082;2023-01-05T06:40:04;98674.73;;;5.56;92.55
62038;BME280;47991;42.974;12.082;2023-01-05T06:42:32;98676.70;;;5.64;92.56
62038;BME280;47991;42.974;12.082;2023-01-05T06:45:00;98674.81;;;5.70;92.51
62038;BME280;47991;42.974;12.082;2023-01-05T06:47:28;98678.48;;;5.69;92.31
62038;BME280;47991;42.974;12.082;2023-01-05T06:49:55;98675.16;;;5.70;92.52
62038;BME280;47991;42.974;12.082;2023-01-05T06:52:23;98675.38;;;5.77;92.41
62038;BME280;47991;42.974;12.082;2023-01-05T06:54:50;98676.25;;;5.76;92.26
62038;BME280;47991;42.974;12.082;2023-01-05T06:57:18;98679.27;;;5.83;92.35
62038;BME280;47991;42.974;12.082;2023-01-05T06:59:45;98678.25;;;5.91;92.32
62038;BME280;47991;42.974;12.082;2023-01-05T07:02:15;98676.53;;;5.95;92.36
62038;BME280;47991;42.974;12.082;2023-01-05T07:04:44;98678.27;;;5.93;91.88
62038;BME280;47991;42.974;12.082;2023-01-05T07:07:12;98677.34;;;5.83;91.85
62038;BME280;47991;42.974;12.082;2023-01-05T07:09:40;98676.98;;;5.80;92.57
62038;BME280;47991;42.974;12.082;2023-01-05T07:12:08;98678.73;;;5.85;92.43
62038;BME280;47991;42.974;12.082;2023-01-05T07:14:35;98680.86;;;5.89;92.31
62038;BME280;47991;42.974;12.082;2023-01-05T07:17:04;98681.06;;;5.91;92.67
62038;BME280;47991;42.974;12.082;2023-01-05T07:19:32;98680.23;;;5.96;92.71
62038;BME280;47991;42.974;12.082;2023-01-05T07:21:59;98682.40;;;6.06;92.16
62038;BME280;47991;42.974;12.082;2023-01-05T07:24:27;98682.74;;;6.05;91.66
62038;BME280;47991;42.974;12.082;2023-01-05T07:26:54;98681.66;;;5.98;92.00
62038;BME280;47991;42.974;12.082;2023-01-05T07:29:22;98683.77;;;6.00;91.94
62038;BME280;47991;42.974;12.082;2023-01-05T07:31:49;98678.54;;;6.09;92.20
62038;BME280;47991;42.974;12.082;2023-01-05T07:34:21;98680.13;;;6.10;91.66
62038;BME280;47991;42.974;12.082;2023-01-05T07:36:49;98680.11;;;6.06;91.67
62038;BME280;47991;42.974;12.082;2023-01-05T07:39:17;98679.60;;;6.09;91.64
62038;BME280;47991;42.974;12.082;2023-01-05T07:41:45;98680.48;;;6.14;92.27
62038;BME280;47991;42.974;12.082;2023-01-05T07:44:13;98680.36;;;6.25;91.79
62038;BME280;47991;42.974;12.082;2023-01-05T07:46:40;98682.48;;;6.25;91.99
62038;BME280;47991;42.974;12.082;2023-01-05T07:49:08;98686.09;;;6.08;92.35
62038;BME280;47991;42.974;12.082;2023-01-05T07:51:35;98685.70;;;6.01;92.90
62038;BME280;47991;42.974;12.082;2023-01-05T07:54:03;98686.21;;;5.97;93.24
62038;BME280;47991;42.974;12.082;2023-01-05T07:56:30;98689.18;;;5.97;93.67
62038;BME280;47991;42.974;12.082;2023-01-05T07:59:01;98691.52;;;6.07;93.85
62038;BME280;47991;42.974;12.082;2023-01-05T08:01:28;98689.10;;;6.13;93.63
62038;BME280;47991;42.974;12.082;2023-01-05T08:03:56;98688.10;;;6.31;93.78
62038;BME280;47991;42.974;12.082;2023-01-05T08:06:24;98690.74;;;6.32;94.15
62038;BME280;47991;42.974;12.082;2023-01-05T08:08:51;98693.73;;;6.32;94.42
62038;BME280;47991;42.974;12.082;2023-01-05T08:11:20;98696.19;;;6.30;94.09
62038;BME280;47991;42.974;12.082;2023-01-05T08:13:48;98694.64;;;6.40;94.16
62038;BME280;47991;42.974;12.082;2023-01-05T08:16:32;98699.23;;;6.53;93.88
62038;BME280;47991;42.974;12.082;2023-01-05T08:18:59;98703.84;;;6.63;93.75
62038;BME280;47991;42.974;12.082;2023-01-05T08:21:27;98701.38;;;6.63;93.34
62038;BME280;47991;42.974;12.082;2023-01-05T08:23:54;98706.13;;;6.65;93.43
62038;BME280;47991;42.974;12.082;2023-01-05T08:26:25;98708.09;;;6.76;93.61
62038;BME280;47991;42.974;12.082;2023-01-05T08:28:52;98710.21;;;6.80;93.55
62038;BME280;47991;42.974;12.082;2023-01-05T08:31:23;98710.92;;;6.90;93.44
62038;BME280;47991;42.974;12.082;2023-01-05T08:33:56;98711.11;;;7.01;93.41
62038;BME280;47991;42.974;12.082;2023-01-05T08:36:25;98705.48;;;7.04;93.11
62038;BME280;47991;42.974;12.082;2023-01-05T08:38:53;98710.75;;;7.04;93.41
62038;BME280;47991;42.974;12.082;2023-01-05T08:41:26;98711.28;;;6.94;93.83
62038;BME280;47991;42.974;12.082;2023-01-05T08:43:56;98711.09;;;6.80;94.78
62038;BME280;47991;42.974;12.082;2023-01-05T08:46:26;98712.66;;;6.79;95.71
62038;BME280;47991;42.974;12.082;2023-01-05T08:48:56;98713.73;;;6.84;95.46
62038;BME280;47991;42.974;12.082;2023-01-05T08:51:25;98714.27;;;6.99;95.41
62038;BME280;47991;42.974;12.082;2023-01-05T08:53:53;98714.11;;;7.14;95.64
62038;BME280;47991;42.974;12.082;2023-01-05T08:56:21;98720.27;;;7.24;95.56
62038;BME280;47991;42.974;12.082;2023-01-05T08:58:51;98718.69;;;7.41;95.52
62038;BME280;47991;42.974;12.082;2023-01-05T09:01:21;98717.46;;;7.43;93.79
62038;BME280;47991;42.974;12.082;2023-01-05T09:03:48;98715.88;;;7.38;94.05
62038;BME280;47991;42.974;12.082;2023-01-05T09:06:16;98716.38;;;7.61;94.20
62038;BME280;47991;42.974;12.082;2023-01-05T09:08:44;98716.17;;;7.69;93.72
62038;BME280;47991;42.974;12.082;2023-01-05T09:11:15;98715.16;;;7.56;93.44
62038;BME280;47991;42.974;12.082;2023-01-05T09:13:49;98721.30;;;7.59;93.48
62038;BME280;47991;42.974;12.082;2023-01-05T09:16:19;98717.45;;;7.47;93.40
62038;BME280;47991;42.974;12.082;2023-01-05T09:18:49;98722.02;;;7.60;94.32
62038;BME280;47991;42.974;12.082;2023-01-05T09:21:17;98726.75;;;7.74;94.35
62038;BME280;47991;42.974;12.082;2023-01-05T09:23:44;98714.55;;;7.92;94.16
62038;BME280;47991;42.974;12.082;2023-01-05T09:26:12;98715.07;;;7.96;93.57
62038;BME280;47991;42.974;12.082;2023-01-05T09:28:43;98720.01;;;7.97;93.64
62038;BME280;47991;42.974;12.082;2023-01-05T09:31:13;98718.42;;;7.98;93.67
62038;BME280;47991;42.974;12.082;2023-01-05T09:33:42;98715.98;;;7.95;94.41
62038;BME280;47991;42.974;12.082;2023-01-05T09:36:11;98715.10;;;7.86;94.15
62038;BME280;47991;42.974;12.082;2023-01-05T09:38:39;98717.05;;;7.77;94.78
62038;BME280;47991;42.974;12.082;2023-01-05T09:43:40;98711.25;;;7.77;94.93
62038;BME280;47991;42.974;12.082;2023-01-05T09:46:18;98713.52;;;7.88;95.32
62038;BME280;47991;42.974;12.082;2023-01-05T09:48:52;98710.86;;;7.90;94.61
62038;BME280;47991;42.974;12.082;2023-01-05T09:51:22;98708.59;;;7.87;94.98
62038;BME280;47991;42.974;12.082;2023-01-05T09:53:50;98705.60;;;7.89;95.52
62038;BME280;47991;42.974;12.082;2023-01-05T09:56:38;98708.20;;;7.98;95.54
62038;BME280;47991;42.974;12.082;2023-01-05T09:59:17;98710.11;;;8.09;95.88
62038;BME280;47991;42.974;12.082;2023-01-05T10:01:50;98705.18;;;8.11;95.70
62038;BME280;47991;42.974;12.082;2023-01-05T10:04:21;98704.28;;;8.15;95.05
62038;BME280;47991;42.974;12.082;2023-01-05T10:06:54;98700.91;;;8.20;95.46
62038;BME280;47991;42.974;12.082;2023-01-05T10:09:29;98696.30;;;8.26;95.15
62038;BME280;47991;42.974;12.082;2023-01-05T10:12:23;98694.70;;;8.30;94.86
62038;BME280;47991;42.974;12.082;2023-01-05T10:15:15;98688.50;;;8.41;94.46
62038;BME280;47991;42.974;12.082;2023-01-05T10:17:43;98683.94;;;8.73;94.20
62038;BME280;47991;42.974;12.082;2023-01-05T10:20:17;98672.04;;;9.31;93.03
62038;BME280;47991;42.974;12.082;2023-01-05T10:25:56;98665.13;;;10.18;90.51
62038;BME280;47991;42.974;12.082;2023-01-05T10:28:37;98664.60;;;10.18;90.68
62038;BME280;47991;42.974;12.082;2023-01-05T10:34:20;98663.39;;;10.01;90.39
62038;BME280;47991;42.974;12.082;2023-01-05T10:37:12;98661.69;;;9.96;92.19
62038;BME280;47991;42.974;12.082;2023-01-05T10:45:27;98659.93;;;9.94;90.80
62038;BME280;47991;42.974;12.082;2023-01-05T10:47:56;98659.43;;;9.76;90.37
62038;BME280;47991;42.974;12.082;2023-01-05T10:53:22;98655.23;;;9.71;92.28
62038;BME280;47991;42.974;12.082;2023-01-05T10:55:56;98651.53;;;9.72;92.24
62038;BME280;47991;42.974;12.082;2023-01-05T10:58:27;98646.70;;;9.60;92.05
62038;BME280;47991;42.974;12.082;2023-01-05T11:01:02;98638.82;;;9.55;92.38
62038;BME280;47991;42.974;12.082;2023-01-05T11:03:42;98635.34;;;9.50;92.47
62038;BME280;47991;42.974;12.082;2023-01-05T11:06:24;98633.64;;;9.42;92.67
62038;BME280;47991;42.974;12.082;2023-01-05T11:08:53;98629.96;;;9.40;92.83
62038;BME280;47991;42.974;12.082;2023-01-05T11:11:25;98631.22;;;9.38;93.83
62038;BME280;47991;42.974;12.082;2023-01-05T11:13:55;98634.88;;;9.43;93.80
62038;BME280;47991;42.974;12.082;2023-01-05T11:16:29;98630.65;;;9.42;94.28
62038;BME280;47991;42.974;12.082;2023-01-05T11:19:05;98627.66;;;9.40;94.03
62038;BME280;47991;42.974;12.082;2023-01-05T11:21:44;98624.95;;;9.47;93.72
62038;BME280;47991;42.974;12.082;2023-01-05T11:24:25;98622.27;;;9.50;93.47
62038;BME280;47991;42.974;12.082;2023-01-05T11:27:41;98619.79;;;9.51;93.73
62038;BME280;47991;42.974;12.082;2023-01-05T11:29:42;98615.02;;;9.52;93.74
62038;BME280;47991;42.974;12.082;2023-01-05T11:32:11;98616.86;;;9.61;93.68
62038;BME280;47991;42.974;12.082;2023-01-05T11:34:49;98609.40;;;9.65;93.39
62038;BME280;47991;42.974;12.082;2023-01-05T11:37:23;98611.20;;;9.77;93.45
62038;BME280;47991;42.974;12.082;2023-01-05T11:39:56;98609.62;;;9.92;93.42
62038;BME280;47991;42.974;12.082;2023-01-05T11:50:21;98601.55;;;10.15;91.86
62038;BME280;47991;42.974;12.082;2023-01-05T11:52:58;98598.16;;;10.18;92.40
62038;BME280;47991;42.974;12.082;2023-01-05T11:55:29;98596.61;;;10.15;92.09
62038;BME280;47991;42.974;12.082;2023-01-05T11:58:19;98589.30;;;10.20;92.55
62038;BME280;47991;42.974;12.082;2023-01-05T12:04:02;98587.52;;;10.36;92.04
62038;BME280;47991;42.974;12.082;2023-01-05T12:28:36;98565.20;;;10.73;91.55
62038;BME280;47991;42.974;12.082;2023-01-05T12:34:00;98552.80;;;11.06;90.44
62038;BME280;47991;42.974;12.082;2023-01-05T12:50:06;98537.08;;;10.94;87.18
62038;BME280;47991;42.974;12.082;2023-01-05T12:52:47;98533.12;;;10.77;87.48
62038;BME280;47991;42.974;12.082;2023-01-05T12:55:20;98526.66;;;10.73;88.71
62038;BME280;47991;42.974;12.082;2023-01-05T12:57:53;98524.79;;;10.68;88.34
62038;BME280;47991;42.974;12.082;2023-01-05T13:00:25;98523.79;;;10.64;88.77
62038;BME280;47991;42.974;12.082;2023-01-05T13:03:01;98522.85;;;10.68;89.41
62038;BME280;47991;42.974;12.082;2023-01-05T13:08:25;98517.05;;;10.65;89.32
62038;BME280;47991;42.974;12.082;2023-01-05T13:11:14;98513.41;;;10.72;89.12
62038;BME280;47991;42.974;12.082;2023-01-05T13:13:51;98508.48;;;10.70;89.31
62038;BME280;47991;42.974;12.082;2023-01-05T13:16:22;98507.22;;;10.72;89.83
62038;BME280;47991;42.974;12.082;2023-01-05T13:18:56;98506.25;;;10.77;89.57
62038;BME280;47991;42.974;12.082;2023-01-05T13:21:27;98498.23;;;10.80;89.38
62038;BME280;47991;42.974;12.082;2023-01-05T13:24:02;98493.96;;;10.81;89.40
62038;BME280;47991;42.974;12.082;2023-01-05T13:26:33;98496.46;;;10.80;89.42
62038;BME280;47991;42.974;12.082;2023-01-05T13:29:01;98491.40;;;10.76;89.07
62038;BME280;47991;42.974;12.082;2023-01-05T13:31:57;98490.04;;;10.64;88.99
62038;BME280;47991;42.974;12.082;2023-01-05T13:48:45;98485.67;;;11.00;88.54
62038;BME280;47991;42.974;12.082;2023-01-05T13:53:55;98482.71;;;11.16;87.55
62038;BME280;47991;42.974;12.082;2023-01-05T13:56:27;98483.70;;;11.11;87.77
62038;BME280;47991;42.974;12.082;2023-01-05T14:01:42;98486.05;;;10.99;88.47
62038;BME280;47991;42.974;12.082;2023-01-05T14:04:31;98487.67;;;11.07;88.58
62038;BME280;47991;42.974;12.082;2023-01-05T14:07:02;98488.38;;;11.06;88.45
62038;BME280;47991;42.974;12.082;2023-01-05T14:20:49;98479.30;;;11.19;87.28
62038;BME280;47991;42.974;12.082;2023-01-05T14:26:00;98478.08;;;11.08;88.38
62038;BME280;47991;42.974;12.082;2023-01-05T14:34:00;98481.64;;;10.88;89.17
62038;BME280;47991;42.974;12.082;2023-01-05T14:36:39;98481.41;;;10.91;88.76
62038;BME280;47991;42.974;12.082;2023-01-05T14:42:04;98477.31;;;10.82;89.37
62038;BME280;47991;42.974;12.082;2023-01-05T14:47:41;98480.14;;;10.63;89.17
62038;BME280;47991;42.974;12.082;2023-01-05T14:50:32;98479.15;;;10.58;89.65
62038;BME280;47991;42.974;12.082;2023-01-05T15:03:56;98489.75;;;10.24;90.80
62038;BME280;47991;42.974;12.082;2023-01-05T15:06:36;98491.39;;;10.20;90.73
62038;BME280;47991;42.974;12.082;2023-01-05T15:17:20;98496.99;;;10.00;92.04
62038;BME280;47991;42.974;12.082;2023-01-05T15:26:05;98493.90;;;10.30;89.90
62038;BME280;47991;42.974;12.082;2023-01-05T15:31:37;98483.23;;;10.36;89.25
62038;BME280;47991;42.974;12.082;2023-01-05T15:37:01;98480.11;;;10.30;89.21
62038;BME280;47991;42.974;12.082;2023-01-05T15:39:35;98478.48;;;10.35;89.35
62038;BME280;47991;42.974;12.082;2023-01-05T15:42:07;98472.95;;;10.37;89.04
62038;BME280;47991;42.974;12.082;2023-01-05T15:44:38;98471.90;;;10.37;89.23
62038;BME280;47991;42.974;12.082;2023-01-05T15:47:08;98467.81;;;10.38;89.19
62038;BME280;47991;42.974;12.082;2023-01-05T15:49:37;98471.47;;;10.42;89.10
62038;BME280;47991;42.974;12.082;2023-01-05T15:52:17;98469.38;;;10.41;88.56
62038;BME280;47991;42.974;12.082;2023-01-05T15:54:56;98475.81;;;10.36;88.52
62038;BME280;47991;42.974;12.082;2023-01-05T15:57:24;98469.34;;;10.30;88.58
62038;BME280;47991;42.974;12.082;2023-01-05T15:59:52;98471.34;;;10.25;88.81
62038;BME280;47991;42.974;12.082;2023-01-05T16:02:24;98475.30;;;10.21;88.87
62038;BME280;47991;42.974;12.082;2023-01-05T16:05:15;98472.14;;;10.19;88.91